sensor_id;sensor_type;location;lat;lon;timestamp;pressure;altitude;pressure_sealevel;temperature;humidity
14232;BME280;7200;52.194;9.900;2023-03-14T00:00:37;97822.84;;;15.19;100.00
14232;BME280;7200;52.194;9.900;2023-03-14T00:03:03;97806.09;;;15.18;100.00
14232;BME280;7200;52.194;9.900;2023-03-14T00:05:28;97826.28;;;15.29;100.00
14232;BME280;7200;52.194;9.900;2023-03-14T00:07:53;97782.00;;;15.02;100.00
14232;BME280;7200;52.194;9.900;2023-03-14T00:10:19;97785.19;;;15.06;100.00
14232;BME280;7200;52.194;9.900;2023-03-14T00:12:45;97770.88;;;15.16;100.00
14232;BME280;7200;52.194;9.900;2023-03-14T00:15:11;97782.88;;;15.21;100.00
14232;BME280;7200;52.194;9.900;2023-03-14T00:17:37;97759.31;;;15.08;100.00
14232;BME280;7200;52.194;9.900;2023-03-14T00:20:07;97777.97;;;14.98;100.00
14232;BME280;7200;52.194;9.900;2023-03-14T00:22:37;97796.53;;;15.26;100.00
14232;BME280;7200;52.194;9.900;2023-03-14T00:25:05;97755.78;;;15.17;100.00
14232;BME280;7200;52.194;9.900;2023-03-14T00:27:31;97773.28;;;14.92;100.00
14232;BME280;7200;52.194;9.900;2023-03-14T00:29:57;97790.16;;;14.91;100.00
14232;BME280;7200;52.194;9.900;2023-03-14T00:32:22;97787.63;;;14.71;100.00
14232;BME280;7200;52.194;9.900;2023-03-14T00:34:47;97784.25;;;14.79;100.00
14232;BME280;7200;52.194;9.900;2023-03-14T00:37:13;97781.59;;;14.97;100.00
14232;BME280;7200;52.194;9.900;2023-03-14T00:39:38;97786.97;;;14.87;100.00
14232;BME280;7200;52.194;9.900;2023-03-14T00:42:03;97775.25;;;14.62;100.00
14232;BME280;7200;52.194;9.900;2023-03-14T00:44:29;97795.00;;;14.77;100.00
14232;BME280;7200;52.194;9.900;2023-03-14T00:46:54;97766.72;;;14.58;100.00
14232;BME280;7200;52.194;9.900;2023-03-14T00:49:19;97827.19;;;14.92;100.00
14232;BME280;7200;52.194;9.900;2023-03-14T00:51:45;97798.97;;;14.91;100.00
14232;BME280;7200;52.194;9.900;2023-03-14T00:54:10;97765.94;;;14.76;100.00
14232;BME280;7200;52.194;9.900;2023-03-14T00:56:35;97808.94;;;15.07;100.00
14232;BME280;7200;52.194;9.900;2023-03-14T00:59:00;97791.66;;;15.21;100.00
14232;BME280;7200;52.194;9.900;2023-03-14T01:01:26;97773.31;;;15.28;100.00
14232;BME280;7200;52.194;9.900;2023-03-14T01:03:52;97761.91;;;15.17;100.00
14232;BME280;7200;52.194;9.900;2023-03-14T01:06:20;97746.25;;;14.96;100.00
14232;BME280;7200;52.194;9.900;2023-03-14T01:08:46;97742.78;;;14.96;100.00
14232;BME280;7200;52.194;9.900;2023-03-14T01:11:17;97749.78;;;15.15;100.00
14232;BME280;7200;52.194;9.900;2023-03-14T01:13:42;97729.19;;;14.81;100.00
14232;BME280;7200;52.194;9.900;2023-03-14T01:16:09;97704.47;;;14.81;100.00
14232;BME280;7200;52.194;9.900;2023-03-14T01:18:35;97717.19;;;14.95;100.00
14232;BME280;7200;52.194;9.900;2023-03-14T01:21:11;97730.66;;;15.11;100.00
14232;BME280;7200;52.194;9.900;2023-03-14T01:23:37;97709.16;;;14.87;100.00
14232;BME280;7200;52.194;9.900;2023-03-14T01:26:02;97726.81;;;14.78;100.00
14232;BME280;7200;52.194;9.900;2023-03-14T01:28:27;97696.25;;;14.74;100.00
14232;BME280;7200;52.194;9.900;2023-03-14T01:30:53;97690.19;;;14.82;100.00
14232;BME280;7200;52.194;9.900;2023-03-14T01:33:18;97676.59;;;14.67;100.00
14232;BME280;7200;52.194;9.900;2023-03-14T01:35:43;97727.44;;;14.90;100.00
14232;BME280;7200;52.194;9.900;2023-03-14T01:38:09;97710.53;;;14.91;100.00
14232;BME280;7200;52.194;9.900;2023-03-14T01:40:41;97707.63;;;14.66;100.00
14232;BME280;7200;52.194;9.900;2023-03-14T01:43:14;97720.13;;;14.74;100.00
14232;BME280;7200;52.194;9.900;2023-03-14T01:48:31;97732.19;;;14.68;100.00
14232;BME280;7200;52.194;9.900;2023-03-14T01:50:57;97722.25;;;14.70;100.00
14232;BME280;7200;52.194;9.900;2023-03-14T01:53:24;97690.47;;;14.78;100.00
14232;BME280;7200;52.194;9.900;2023-03-14T01:55:52;97683.22;;;14.81;100.00
14232;BME280;7200;52.194;9.900;2023-03-14T01:58:19;97637.50;;;14.41;100.00
14232;BME280;7200;52.194;9.900;2023-03-14T02:00:45;97631.88;;;14.44;100.00
14232;BME280;7200;52.194;9.900;2023-03-14T02:03:14;97639.84;;;14.44;100.00
14232;BME280;7200;52.194;9.900;2023-03-14T02:05:42;97655.53;;;14.37;100.00
14232;BME280;7200;52.194;9.900;2023-03-14T02:08:11;97669.47;;;14.67;100.00
14232;BME280;7200;52.194;9.900;2023-03-14T02:10:41;97632.97;;;14.51;100.00
14232;BME280;7200;52.194;9.900;2023-03-14T02:13:07;97604.34;;;14.27;100.00
14232;BME280;7200;52.194;9.900;2023-03-14T02:15:33;97628.75;;;14.31;100.00
14232;BME280;7200;52.194;9.900;2023-03-14T02:17:59;97625.56;;;14.27;100.00
14232;BME280;7200;52.194;9.900;2023-03-14T02:23:03;97637.53;;;14.31;100.00
14232;BME280;7200;52.194;9.900;2023-03-14T02:28:14;97655.63;;;14.46;100.00
14232;BME280;7200;52.194;9.900;2023-03-14T02:30:40;97678.59;;;14.55;100.00
14232;BME280;7200;52.194;9.900;2023-03-14T02:33:08;97653.22;;;14.25;100.00
14232;BME280;7200;52.194;9.900;2023-03-14T02:35:59;97655.75;;;14.44;100.00
14232;BME280;7200;52.194;9.900;2023-03-14T02:38:31;97663.13;;;14.60;100.00
14232;BME280;7200;52.194;9.900;2023-03-14T02:40:59;97615.06;;;14.35;100.00
14232;BME280;7200;52.194;9.900;2023-03-14T02:43:24;97613.88;;;14.20;100.00
14232;BME280;7200;52.194;9.900;2023-03-14T02:45:51;97640.19;;;14.31;100.00
14232;BME280;7200;52.194;9.900;2023-03-14T02:51:17;97603.19;;;14.12;100.00
14232;BME280;7200;52.194;9.900;2023-03-14T02:53:43;97606.66;;;14.12;100.00
14232;BME280;7200;52.194;9.900;2023-03-14T02:56:09;97581.22;;;14.01;100.00
14232;BME280;7200;52.194;9.900;2023-03-14T02:58:35;97607.22;;;14.16;100.00
14232;BME280;7200;52.194;9.900;2023-03-14T03:01:00;97592.22;;;14.25;100.00
14232;BME280;7200;52.194;9.900;2023-03-14T03:03:26;97627.13;;;14.48;100.00
14232;BME280;7200;52.194;9.900;2023-03-14T03:05:53;97567.78;;;14.03;100.00
14232;BME280;7200;52.194;9.900;2023-03-14T03:08:20;97579.03;;;14.15;100.00
14232;BME280;7200;52.194;9.900;2023-03-14T03:10:46;97534.94;;;13.96;100.00
14232;BME280;7200;52.194;9.900;2023-03-14T03:13:11;97590.88;;;14.20;100.00
14232;BME280;7200;52.194;9.900;2023-03-14T03:15:37;97634.94;;;14.49;100.00
14232;BME280;7200;52.194;9.900;2023-03-14T03:18:02;97574.44;;;14.35;100.00
14232;BME280;7200;52.194;9.900;2023-03-14T03:20:28;97538.94;;;14.18;100.00
14232;BME280;7200;52.194;9.900;2023-03-14T03:22:53;97534.00;;;14.05;100.00
14232;BME280;7200;52.194;9.900;2023-03-14T03:25:18;97614.00;;;14.46;100.00
14232;BME280;7200;52.194;9.900;2023-03-14T03:27:43;97586.31;;;14.31;100.00
14232;BME280;7200;52.194;9.900;2023-03-14T03:30:10;97540.25;;;13.86;100.00
14232;BME280;7200;52.194;9.900;2023-03-14T03:32:35;97617.81;;;14.16;100.00
14232;BME280;7200;52.194;9.900;2023-03-14T03:35:02;97609.03;;;14.15;100.00
14232;BME280;7200;52.194;9.900;2023-03-14T03:37:30;97606.25;;;14.17;100.00
14232;BME280;7200;52.194;9.900;2023-03-14T03:39:55;97558.25;;;13.92;100.00
14232;BME280;7200;52.194;9.900;2023-03-14T03:42:20;97569.13;;;13.89;100.00
14232;BME280;7200;52.194;9.900;2023-03-14T03:44:46;97553.38;;;13.88;100.00
14232;BME280;7200;52.194;9.900;2023-03-14T03:47:12;97566.94;;;13.75;100.00
14232;BME280;7200;52.194;9.900;2023-03-14T03:49:37;97622.41;;;13.96;100.00
14232;BME280;7200;52.194;9.900;2023-03-14T03:52:02;97590.22;;;13.81;100.00
14232;BME280;7200;52.194;9.900;2023-03-14T03:54:28;97620.16;;;13.91;100.00
14232;BME280;7200;52.194;9.900;2023-03-14T03:56:54;97622.06;;;13.71;100.00
14232;BME280;7200;52.194;9.900;2023-03-14T03:59:19;97622.59;;;13.37;100.00
14232;BME280;7200;52.194;9.900;2023-03-14T04:01:46;97628.00;;;13.26;100.00
14232;BME280;7200;52.194;9.900;2023-03-14T04:04:11;97681.09;;;13.44;100.00
14232;BME280;7200;52.194;9.900;2023-03-14T04:06:37;97700.59;;;13.33;100.00
14232;BME280;7200;52.194;9.900;2023-03-14T04:09:03;97687.75;;;12.90;100.00
14232;BME280;7200;52.194;9.900;2023-03-14T04:11:28;97656.13;;;12.59;100.00
14232;BME280;7200;52.194;9.900;2023-03-14T04:13:53;97681.56;;;12.50;100.00
14232;BME280;7200;52.194;9.900;2023-03-14T04:16:24;97662.56;;;12.16;100.00
14232;BME280;7200;52.194;9.900;2023-03-14T04:18:50;97705.94;;;12.44;100.00
14232;BME280;7200;52.194;9.900;2023-03-14T04:21:16;97630.84;;;11.85;100.00
14232;BME280;7200;52.194;9.900;2023-03-14T04:23:42;97689.19;;;12.34;100.00
14232;BME280;7200;52.194;9.900;2023-03-14T04:26:07;97634.53;;;11.94;100.00
14232;BME280;7200;52.194;9.900;2023-03-14T04:28:33;97669.31;;;11.99;100.00
14232;BME280;7200;52.194;9.900;2023-03-14T04:30:58;97624.44;;;11.78;100.00
14232;BME280;7200;52.194;9.900;2023-03-14T04:33:23;97685.53;;;12.15;100.00
14232;BME280;7200;52.194;9.900;2023-03-14T04:35:49;97674.88;;;12.36;100.00
14232;BME280;7200;52.194;9.900;2023-03-14T04:38:18;97630.47;;;11.90;100.00
14232;BME280;7200;52.194;9.900;2023-03-14T04:40:43;97695.13;;;12.66;100.00
14232;BME280;7200;52.194;9.900;2023-03-14T04:43:10;97641.19;;;12.38;100.00
14232;BME280;7200;52.194;9.900;2023-03-14T04:45:35;97648.97;;;12.30;100.00
14232;BME280;7200;52.194;9.900;2023-03-14T04:48:01;97641.88;;;12.31;100.00
14232;BME280;7200;52.194;9.900;2023-03-14T04:50:26;97662.50;;;12.46;100.00
14232;BME280;7200;52.194;9.900;2023-03-14T04:52:51;97650.63;;;12.21;100.00
14232;BME280;7200;52.194;9.900;2023-03-14T04:55:17;97628.47;;;12.13;100.00
14232;BME280;7200;52.194;9.900;2023-03-14T04:57:42;97654.22;;;12.20;100.00
14232;BME280;7200;52.194;9.900;2023-03-14T05:00:08;97643.38;;;12.23;100.00
14232;BME280;7200;52.194;9.900;2023-03-14T05:02:34;97659.94;;;12.25;100.00
14232;BME280;7200;52.194;9.900;2023-03-14T05:05:00;97639.44;;;12.08;100.00
14232;BME280;7200;52.194;9.900;2023-03-14T05:07:25;97676.28;;;12.40;100.00
14232;BME280;7200;52.194;9.900;2023-03-14T05:09:51;97652.69;;;12.18;100.00
14232;BME280;7200;52.194;9.900;2023-03-14T05:12:17;97678.88;;;12.31;100.00
14232;BME280;7200;52.194;9.900;2023-03-14T05:14:43;97663.84;;;12.21;100.00
14232;BME280;7200;52.194;9.900;2023-03-14T05:17:08;97680.53;;;12.32;100.00
14232;BME280;7200;52.194;9.900;2023-03-14T05:19:34;97655.44;;;12.47;100.00
14232;BME280;7200;52.194;9.900;2023-03-14T05:22:00;97641.41;;;12.16;100.00
14232;BME280;7200;52.194;9.900;2023-03-14T05:24:25;97667.63;;;12.29;100.00
14232;BME280;7200;52.194;9.900;2023-03-14T05:26:50;97677.13;;;12.51;100.00
14232;BME280;7200;52.194;9.900;2023-03-14T05:29:15;97672.56;;;12.72;100.00
14232;BME280;7200;52.194;9.900;2023-03-14T05:31:41;97654.16;;;12.41;100.00
14232;BME280;7200;52.194;9.900;2023-03-14T05:34:06;97641.78;;;12.52;100.00
14232;BME280;7200;52.194;9.900;2023-03-14T05:36:31;97605.13;;;12.37;100.00
14232;BME280;7200;52.194;9.900;2023-03-14T05:38:57;97614.88;;;12.37;100.00
14232;BME280;7200;52.194;9.900;2023-03-14T05:41:22;97616.97;;;12.33;100.00
14232;BME280;7200;52.194;9.900;2023-03-14T05:43:47;97660.72;;;12.47;100.00
14232;BME280;7200;52.194;9.900;2023-03-14T05:46:12;97655.81;;;12.52;100.00
14232;BME280;7200;52.194;9.900;2023-03-14T05:48:38;97647.38;;;12.68;100.00
14232;BME280;7200;52.194;9.900;2023-03-14T05:51:03;97575.72;;;12.01;100.00
14232;BME280;7200;52.194;9.900;2023-03-14T05:53:28;97615.88;;;12.36;100.00
14232;BME280;7200;52.194;9.900;2023-03-14T05:55:55;97598.81;;;12.09;100.00
14232;BME280;7200;52.194;9.900;2023-03-14T05:58:20;97630.16;;;12.23;100.00
14232;BME280;7200;52.194;9.900;2023-03-14T06:00:45;97630.19;;;12.33;100.00
14232;BME280;7200;52.194;9.900;2023-03-14T06:03:11;97623.66;;;12.37;100.00
14232;BME280;7200;52.194;9.900;2023-03-14T06:05:36;97585.47;;;12.11;100.00
14232;BME280;7200;52.194;9.900;2023-03-14T06:08:02;97602.31;;;12.00;100.00
14232;BME280;7200;52.194;9.900;2023-03-14T06:10:27;97676.28;;;12.40;100.00
14232;BME280;7200;52.194;9.900;2023-03-14T06:12:52;97634.22;;;12.37;100.00
14232;BME280;7200;52.194;9.900;2023-03-14T06:15:17;97662.00;;;12.62;100.00
14232;BME280;7200;52.194;9.900;2023-03-14T06:17:43;97652.66;;;12.78;100.00
14232;BME280;7200;52.194;9.900;2023-03-14T06:20:09;97610.97;;;12.21;100.00
14232;BME280;7200;52.194;9.900;2023-03-14T06:22:34;97632.53;;;12.17;100.00
14232;BME280;7200;52.194;9.900;2023-03-14T06:24:59;97635.34;;;12.35;100.00
14232;BME280;7200;52.194;9.900;2023-03-14T06:27:25;97635.59;;;12.22;100.00
14232;BME280;7200;52.194;9.900;2023-03-14T06:29:50;97679.81;;;12.80;100.00
14232;BME280;7200;52.194;9.900;2023-03-14T06:32:15;97620.44;;;12.34;100.00
14232;BME280;7200;52.194;9.900;2023-03-14T06:34:41;97617.09;;;12.22;100.00
14232;BME280;7200;52.194;9.900;2023-03-14T06:37:06;97687.47;;;12.73;100.00
14232;BME280;7200;52.194;9.900;2023-03-14T06:39:32;97671.56;;;12.63;100.00
14232;BME280;7200;52.194;9.900;2023-03-14T06:41:57;97650.84;;;12.59;100.00
14232;BME280;7200;52.194;9.900;2023-03-14T06:44:22;97672.16;;;12.77;100.00
14232;BME280;7200;52.194;9.900;2023-03-14T06:46:47;97652.03;;;12.35;100.00
14232;BME280;7200;52.194;9.900;2023-03-14T06:49:13;97681.19;;;12.55;100.00
14232;BME280;7200;52.194;9.900;2023-03-14T06:51:38;97661.97;;;12.53;100.00
14232;BME280;7200;52.194;9.900;2023-03-14T06:54:03;97648.25;;;12.28;100.00
14232;BME280;7200;52.194;9.900;2023-03-14T06:56:29;97718.09;;;12.66;100.00
14232;BME280;7200;52.194;9.900;2023-03-14T06:58:54;97689.03;;;12.35;100.00
14232;BME280;7200;52.194;9.900;2023-03-14T07:01:23;97722.81;;;12.53;100.00
14232;BME280;7200;52.194;9.900;2023-03-14T07:03:49;97705.47;;;12.39;100.00
14232;BME280;7200;52.194;9.900;2023-03-14T07:06:15;97727.06;;;12.34;100.00
14232;BME280;7200;52.194;9.900;2023-03-14T07:08:40;97717.88;;;12.38;100.00
14232;BME280;7200;52.194;9.900;2023-03-14T07:11:07;97726.44;;;12.21;100.00
14232;BME280;7200;52.194;9.900;2023-03-14T07:13:32;97759.69;;;12.23;100.00
14232;BME280;7200;52.194;9.900;2023-03-14T07:15:58;97788.16;;;12.72;100.00
14232;BME280;7200;52.194;9.900;2023-03-14T07:18:23;97748.94;;;12.46;100.00
14232;BME280;7200;52.194;9.900;2023-03-14T07:20:48;97736.28;;;12.50;100.00
14232;BME280;7200;52.194;9.900;2023-03-14T07:23:13;97719.78;;;12.26;100.00
14232;BME280;7200;52.194;9.900;2023-03-14T07:25:39;97759.03;;;12.31;100.00
14232;BME280;7200;52.194;9.900;2023-03-14T07:28:04;97740.44;;;12.42;100.00
14232;BME280;7200;52.194;9.900;2023-03-14T07:30:29;97745.16;;;12.39;100.00
14232;BME280;7200;52.194;9.900;2023-03-14T07:32:55;97733.94;;;12.16;100.00
14232;BME280;7200;52.194;9.900;2023-03-14T07:35:20;97765.44;;;12.29;100.00
14232;BME280;7200;52.194;9.900;2023-03-14T07:37:45;97757.19;;;12.22;100.00
14232;BME280;7200;52.194;9.900;2023-03-14T07:40:11;97761.53;;;12.33;100.00
14232;BME280;7200;52.194;9.900;2023-03-14T07:42:40;97736.44;;;12.17;100.00
14232;BME280;7200;52.194;9.900;2023-03-14T07:45:05;97771.94;;;12.24;100.00
14232;BME280;7200;52.194;9.900;2023-03-14T07:47:31;97760.47;;;12.45;100.00
14232;BME280;7200;52.194;9.900;2023-03-14T07:49:56;97791.97;;;12.98;100.00
14232;BME280;7200;52.194;9.900;2023-03-14T07:52:21;97772.22;;;13.22;100.00
14232;BME280;7200;52.194;9.900;2023-03-14T07:54:47;97738.47;;;12.85;100.00
14232;BME280;7200;52.194;9.900;2023-03-14T07:57:12;97728.00;;;12.83;100.00
14232;BME280;7200;52.194;9.900;2023-03-14T07:59:37;97687.03;;;12.58;100.00
14232;BME280;7200;52.194;9.900;2023-03-14T08:02:03;97724.00;;;12.99;100.00
14232;BME280;7200;52.194;9.900;2023-03-14T08:04:30;97721.22;;;13.00;100.00
14232;BME280;7200;52.194;9.900;2023-03-14T08:06:55;97713.41;;;12.99;100.00
14232;BME280;7200;52.194;9.900;2023-03-14T08:09:21;97713.53;;;13.07;100.00
14232;BME280;7200;52.194;9.900;2023-03-14T08:11:46;97735.34;;;13.30;100.00
14232;BME280;7200;52.194;9.900;2023-03-14T08:14:11;97718.31;;;13.42;100.00
14232;BME280;7200;52.194;9.900;2023-03-14T08:16:37;97736.00;;;13.71;100.00
14232;BME280;7200;52.194;9.900;2023-03-14T08:19:02;97715.03;;;13.88;100.00
14232;BME280;7200;52.194;9.900;2023-03-14T08:21:27;97692.78;;;13.61;100.00
14232;BME280;7200;52.194;9.900;2023-03-14T08:23:52;97643.06;;;13.16;100.00
14232;BME280;7200;52.194;9.900;2023-03-14T08:26:18;97699.03;;;13.79;100.00
14232;BME280;7200;52.194;9.900;2023-03-14T08:28:43;97719.53;;;13.77;100.00
14232;BME280;7200;52.194;9.900;2023-03-14T08:31:08;97714.78;;;13.61;100.00
14232;BME280;7200;52.194;9.900;2023-03-14T08:33:34;97702.56;;;13.31;100.00
14232;BME280;7200;52.194;9.900;2023-03-14T08:36:00;97709.78;;;13.19;100.00
14232;BME280;7200;52.194;9.900;2023-03-14T08:38:26;97758.41;;;13.18;100.00
14232;BME280;7200;52.194;9.900;2023-03-14T08:40:56;97737.91;;;13.01;100.00
14232;BME280;7200;52.194;9.900;2023-03-14T08:43:21;97745.00;;;12.81;100.00
14232;BME280;7200;52.194;9.900;2023-03-14T08:45:47;97743.66;;;12.46;100.00
14232;BME280;7200;52.194;9.900;2023-03-14T08:48:12;97777.66;;;12.60;100.00
14232;BME280;7200;52.194;9.900;2023-03-14T08:50:37;97796.53;;;12.87;100.00
14232;BME280;7200;52.194;9.900;2023-03-14T08:53:03;97829.47;;;13.03;100.00
14232;BME280;7200;52.194;9.900;2023-03-14T08:55:28;97811.78;;;13.14;100.00
14232;BME280;7200;52.194;9.900;2023-03-14T08:57:53;97797.41;;;13.16;100.00
14232;BME280;7200;52.194;9.900;2023-03-14T09:00:19;97822.16;;;13.56;100.00
14232;BME280;7200;52.194;9.900;2023-03-14T09:02:45;97810.16;;;13.61;100.00
14232;BME280;7200;52.194;9.900;2023-03-14T09:05:11;97823.81;;;14.06;100.00
14232;BME280;7200;52.194;9.900;2023-03-14T09:07:38;97817.66;;;14.15;100.00
14232;BME280;7200;52.194;9.900;2023-03-14T09:10:04;97792.41;;;14.01;100.00
14232;BME280;7200;52.194;9.900;2023-03-14T09:12:29;97762.19;;;13.74;100.00
14232;BME280;7200;52.194;9.900;2023-03-14T09:14:55;97776.13;;;13.96;100.00
14232;BME280;7200;52.194;9.900;2023-03-14T09:17:20;97756.88;;;13.84;100.00
14232;BME280;7200;52.194;9.900;2023-03-14T09:19:46;97785.53;;;14.18;100.00
14232;BME280;7200;52.194;9.900;2023-03-14T09:22:11;97743.22;;;13.89;100.00
14232;BME280;7200;52.194;9.900;2023-03-14T09:24:36;97702.56;;;13.41;100.00
14232;BME280;7200;52.194;9.900;2023-03-14T09:27:01;97755.47;;;13.99;100.00
14232;BME280;7200;52.194;9.900;2023-03-14T09:29:27;97727.19;;;13.71;100.00
14232;BME280;7200;52.194;9.900;2023-03-14T09:31:52;97720.47;;;13.86;100.00
14232;BME280;7200;52.194;9.900;2023-03-14T09:34:17;97716.47;;;13.72;100.00
14232;BME280;7200;52.194;9.900;2023-03-14T09:36:43;97756.38;;;14.18;100.00
14232;BME280;7200;52.194;9.900;2023-03-14T09:39:10;97720.28;;;14.07;100.00
14232;BME280;7200;52.194;9.900;2023-03-14T09:41:37;97761.63;;;14.28;100.00
14232;BME280;7200;52.194;9.900;2023-03-14T09:44:11;97744.28;;;14.43;100.00
14232;BME280;7200;52.194;9.900;2023-03-14T09:46:41;97750.00;;;15.04;100.00
14232;BME280;7200;52.194;9.900;2023-03-14T09:49:34;97678.19;;;14.32;100.00
14232;BME280;7200;52.194;9.900;2023-03-14T09:54:50;97710.09;;;14.02;100.00
14232;BME280;7200;52.194;9.900;2023-03-14T09:57:18;97737.00;;;14.17;100.00
14232;BME280;7200;52.194;9.900;2023-03-14T09:59:45;97695.38;;;13.80;100.00
14232;BME280;7200;52.194;9.900;2023-03-14T10:02:33;97736.84;;;14.19;100.00
14232;BME280;7200;52.194;9.900;2023-03-14T10:05:00;97739.78;;;14.16;100.00
14232;BME280;7200;52.194;9.900;2023-03-14T10:07:30;97756.97;;;14.49;100.00
14232;BME280;7200;52.194;9.900;2023-03-14T10:09:56;97747.50;;;14.37;100.00
14232;BME280;7200;52.194;9.900;2023-03-14T10:12:32;97778.38;;;14.75;100.00
14232;BME280;7200;52.194;9.900;2023-03-14T10:15:05;97746.59;;;14.66;100.00
14232;BME280;7200;52.194;9.900;2023-03-14T10:17:39;97700.72;;;14.46;100.00
14232;BME280;7200;52.194;9.900;2023-03-14T10:20:05;97755.75;;;14.99;100.00
14232;BME280;7200;52.194;9.900;2023-03-14T10:22:31;97738.31;;;14.96;100.00
14232;BME280;7200;52.194;9.900;2023-03-14T10:25:03;97734.97;;;14.94;100.00
14232;BME280;7200;52.194;9.900;2023-03-14T10:27:32;97711.59;;;14.52;100.00
14232;BME280;7200;52.194;9.900;2023-03-14T10:30:07;97741.28;;;14.56;100.00
14232;BME280;7200;52.194;9.900;2023-03-14T10:32:36;97780.31;;;14.83;100.00
14232;BME280;7200;52.194;9.900;2023-03-14T10:37:29;97705.25;;;14.35;100.00
14232;BME280;7200;52.194;9.900;2023-03-14T10:39:58;97693.59;;;14.18;100.00
14232;BME280;7200;52.194;9.900;2023-03-14T10:42:32;97712.44;;;14.15;100.00
14232;BME280;7200;52.194;9.900;2023-03-14T10:45:04;97731.78;;;14.35;100.00
14232;BME280;7200;52.194;9.900;2023-03-14T10:47:33;97715.69;;;14.37;100.00
14232;BME280;7200;52.194;9.900;2023-03-14T10:50:29;97719.66;;;14.60;100.00
14232;BME280;7200;52.194;9.900;2023-03-14T10:52:56;97721.63;;;14.86;100.00
14232;BME280;7200;52.194;9.900;2023-03-14T10:55:24;97711.22;;;14.75;100.00
14232;BME280;7200;52.194;9.900;2023-03-14T10:57:50;97734.00;;;15.13;100.00
14232;BME280;7200;52.194;9.900;2023-03-14T11:00:21;97674.34;;;14.72;100.00
14232;BME280;7200;52.194;9.900;2023-03-14T11:03:08;97635.53;;;14.43;100.00
14232;BME280;7200;52.194;9.900;2023-03-14T11:05:49;97711.75;;;14.96;100.00
14232;BME280;7200;52.194;9.900;2023-03-14T11:08:41;97686.81;;;14.62;100.00
14232;BME280;7200;52.194;9.900;2023-03-14T11:11:14;97686.69;;;14.63;100.00
14232;BME280;7200;52.194;9.900;2023-03-14T11:14:01;97711.50;;;14.90;100.00
14232;BME280;7200;52.194;9.900;2023-03-14T11:16:34;97726.00;;;14.95;100.00
14232;BME280;7200;52.194;9.900;2023-03-14T11:27:22;97736.34;;;15.34;100.00
14232;BME280;7200;52.194;9.900;2023-03-14T11:29:55;97691.66;;;15.12;100.00
14232;BME280;7200;52.194;9.900;2023-03-14T11:37:52;97795.44;;;15.72;100.00
14232;BME280;7200;52.194;9.900;2023-03-14T11:40:21;97744.31;;;15.34;100.00
14232;BME280;7200;52.194;9.900;2023-03-14T11:43:09;97771.41;;;15.38;100.00
14232;BME280;7200;52.194;9.900;2023-03-14T11:45:38;97845.44;;;14.77;100.00
14232;BME280;7200;52.194;9.900;2023-03-14T11:48:14;97920.50;;;11.20;100.00
14232;BME280;7200;52.194;9.900;2023-03-14T11:50:43;98510.63;;;19.18;100.00
14232;BME280;7200;52.194;9.900;2023-03-14T11:53:49;98500.53;;;21.05;100.00
14232;BME280;7200;52.194;9.900;2023-03-14T11:56:26;97914.25;;;8.33;100.00
14232;BME280;7200;52.194;9.900;2023-03-14T11:58:59;98077.06;;;9.51;100.00
14232;BME280;7200;52.194;9.900;2023-03-14T12:01:36;98147.59;;;9.33;100.00
14232;BME280;7200;52.194;9.900;2023-03-14T12:04:22;98356.78;;;9.41;100.00
14232;BME280;7200;52.194;9.900;2023-03-14T12:06:56;98220.75;;;10.44;100.00
14232;BME280;7200;52.194;9.900;2023-03-14T12:09:23;98270.59;;;9.17;100.00
14232;BME280;7200;52.194;9.900;2023-03-14T12:11:52;98391.00;;;10.08;100.00
14232;BME280;7200;52.194;9.900;2023-03-14T12:14:27;98363.94;;;8.97;100.00
14232;BME280;7200;52.194;9.900;2023-03-14T12:16:56;98371.94;;;8.95;100.00
14232;BME280;7200;52.194;9.900;2023-03-14T12:21:55;98386.91;;;9.22;100.00
14232;BME280;7200;52.194;9.900;2023-03-14T12:24:31;98366.25;;;9.43;100.00
14232;BME280;7200;52.194;9.900;2023-03-14T12:27:00;98287.69;;;8.55;100.00
14232;BME280;7200;52.194;9.900;2023-03-14T12:29:27;98304.38;;;8.69;100.00
14232;BME280;7200;52.194;9.900;2023-03-14T12:32:23;98260.94;;;8.34;100.00
14232;BME280;7200;52.194;9.900;2023-03-14T12:34:49;98272.19;;;8.36;100.00
14232;BME280;7200;52.194;9.900;2023-03-14T12:37:29;98265.06;;;8.24;100.00
14232;BME280;7200;52.194;9.900;2023-03-14T12:40:15;98222.19;;;7.80;100.00
14232;BME280;7200;52.194;9.900;2023-03-14T12:42:58;98244.13;;;7.79;100.00
14232;BME280;7200;52.194;9.900;2023-03-14T12:50:44;98213.00;;;7.73;100.00
14232;BME280;7200;52.194;9.900;2023-03-14T12:59:22;98219.59;;;7.95;100.00
14232;BME280;7200;52.194;9.900;2023-03-14T13:01:59;98201.66;;;7.87;100.00
14232;BME280;7200;52.194;9.900;2023-03-14T13:04:35;98200.34;;;7.94;100.00
14232;BME280;7200;52.194;9.900;2023-03-14T13:07:03;98148.31;;;7.29;100.00
14232;BME280;7200;52.194;9.900;2023-03-14T13:11:55;98170.88;;;7.32;100.00
14232;BME280;7200;52.194;9.900;2023-03-14T13:14:22;98239.88;;;7.48;100.00
14232;BME280;7200;52.194;9.900;2023-03-14T13:16:48;98245.94;;;7.49;100.00
14232;BME280;7200;52.194;9.900;2023-03-14T13:19:18;98273.28;;;7.75;100.00
14232;BME280;7200;52.194;9.900;2023-03-14T13:21:44;98280.19;;;7.76;100.00
14232;BME280;7200;52.194;9.900;2023-03-14T13:24:24;98239.75;;;7.35;100.00
14232;BME280;7200;52.194;9.900;2023-03-14T13:26:53;98248.84;;;7.44;100.00
14232;BME280;7200;52.194;9.900;2023-03-14T13:29:22;98264.91;;;7.54;100.00
14232;BME280;7200;52.194;9.900;2023-03-14T13:31:50;98302.91;;;7.77;100.00
14232;BME280;7200;52.194;9.900;2023-03-14T13:34:17;98293.78;;;7.68;100.00
14232;BME280;7200;52.194;9.900;2023-03-14T13:36:43;98305.47;;;7.63;100.00
14232;BME280;7200;52.194;9.900;2023-03-14T13:39:19;98293.31;;;7.62;100.00
14232;BME280;7200;52.194;9.900;2023-03-14T13:41:47;98277.34;;;7.50;100.00
14232;BME280;7200;52.194;9.900;2023-03-14T13:44:16;98303.50;;;7.52;100.00
14232;BME280;7200;52.194;9.900;2023-03-14T13:46:42;98390.78;;;7.86;100.00
14232;BME280;7200;52.194;9.900;2023-03-14T13:49:19;98371.03;;;8.09;100.00
14232;BME280;7200;52.194;9.900;2023-03-14T13:51:46;98306.56;;;7.74;100.00